Time;durP1;ratioP1;P1;durP2;ratioP2;P2;SDS_P1;SDS_P2;PMS_P1;PMS_P2;Temp;Humidity;BMP_temperature;BMP_pressure;BME280_temperature;BME280_humidity;BME280_pressure;Samples;Min_cycle;Max_cycle;Signal;HPM_P1;HPM_P2
2023/11/05 00:01:37;;;;;;;7.87;2.40;;;11.40;99.90;;;;;;5018268;28;20163;-81
2023/11/05 00:04:04;;;;;;;6.90;1.80;;;11.40;99.90;;;;;;5016802;28;20692;-80
2023/11/05 00:06:31;;;;;;;10.43;2.27;;;11.40;99.90;;;;;;5018747;28;20179;-79
2023/11/05 00:08:58;;;;;;;7.10;2.07;;;11.40;99.90;;;;;;5019647;28;20168;-81
2023/11/05 00:11:23;;;;;;;5.97;2.27;;;11.50;99.90;;;;;;5017781;28;20185;-81
2023/11/05 00:13:49;;;;;;;10.67;3.10;;;11.30;99.90;;;;;;5017670;28;20669;-82
2023/11/05 00:16:15;;;;;;;6.00;2.23;;;11.40;99.90;;;;;;5019499;28;20544;-85
2023/11/05 00:18:41;;;;;;;8.93;2.80;;;11.50;99.90;;;;;;5019381;28;20163;-83
2023/11/05 00:21:07;;;;;;;9.23;2.57;;;11.60;99.90;;;;;;5019212;28;20534;-82
2023/11/05 00:23:33;;;;;;;8.07;2.33;;;11.60;99.90;;;;;;5019379;28;20192;-79
2023/11/05 00:25:59;;;;;;;8.67;3.90;;;11.50;99.90;;;;;;5035827;28;20179;-78
2023/11/05 00:28:24;;;;;;;8.07;1.90;;;11.50;99.90;;;;;;5018579;28;20179;-81
2023/11/05 00:30:50;;;;;;;7.17;2.10;;;11.40;99.90;;;;;;5019220;28;20184;-80
2023/11/05 00:33:16;;;;;;;6.87;2.20;;;11.40;99.90;;;;;;5019137;28;20173;-80
2023/11/05 00:35:44;;;;;;;5.57;1.77;;;11.40;99.90;;;;;;5035214;28;20213;-81
2023/11/05 00:38:11;;;;;;;5.23;1.70;;;11.40;99.90;;;;;;5019806;28;20174;-83
2023/11/05 00:40:38;;;;;;;7.80;2.13;;;11.30;99.90;;;;;;5017976;28;20187;-83
2023/11/05 00:43:04;;;;;;;4.60;1.40;;;11.20;99.90;;;;;;5018195;28;20194;-82
2023/11/05 00:45:30;;;;;;;6.93;1.40;;;11.20;99.90;;;;;;5020378;28;20227;-77
2023/11/05 00:47:56;;;;;;;8.17;1.70;;;11.20;99.90;;;;;;5021756;28;20207;-80
2023/11/05 00:50:23;;;;;;;5.10;1.60;;;11.30;99.90;;;;;;5018167;28;20178;-81
2023/11/05 00:52:49;;;;;;;7.97;1.60;;;11.20;99.90;;;;;;5017825;28;20181;-78
2023/11/05 00:55:17;;;;;;;6.27;1.53;;;11.20;99.90;;;;;;5017648;28;20575;-82
2023/11/05 00:57:43;;;;;;;7.33;1.63;;;11.20;99.90;;;;;;5016565;28;20170;-79
2023/11/05 01:00:10;;;;;;;7.93;2.13;;;11.30;99.90;;;;;;5016732;28;20257;-81
2023/11/05 01:02:37;;;;;;;7.90;1.97;;;11.20;99.90;;;;;;5017227;28;20530;-80
2023/11/05 01:05:05;;;;;;;4.03;1.47;;;11.30;99.90;;;;;;5032571;28;20211;-79
2023/11/05 01:07:31;;;;;;;4.83;1.57;;;11.30;99.90;;;;;;5017621;28;20209;-79
2023/11/05 01:09:57;;;;;;;6.87;1.47;;;11.40;99.90;;;;;;5018464;28;20187;-80
2023/11/05 01:12:23;;;;;;;5.43;1.33;;;11.30;99.90;;;;;;5018641;28;20170;-79
2023/11/05 01:14:49;;;;;;;4.40;1.60;;;11.30;99.90;;;;;;5019148;28;20202;-79
2023/11/05 01:17:15;;;;;;;4.77;1.10;;;11.40;99.90;;;;;;5025600;28;20175;-78
2023/11/05 01:19:41;;;;;;;5.10;1.53;;;11.40;99.90;;;;;;5025472;28;20185;-78
2023/11/05 01:22:08;;;;;;;6.00;1.67;;;11.30;99.90;;;;;;5026302;28;20230;-80
2023/11/05 01:24:35;;;;;;;7.37;1.83;;;11.30;99.90;;;;;;5027762;28;20200;-79
2023/11/05 01:27:02;;;;;;;5.80;1.40;;;11.40;99.90;;;;;;5017293;28;20181;-79
2023/11/05 01:29:28;;;;;;;3.53;1.20;;;11.30;99.90;;;;;;5019914;28;20270;-79
2023/11/05 01:31:53;;;;;;;4.90;1.30;;;11.30;99.90;;;;;;5018096;28;20206;-80
2023/11/05 01:34:19;;;;;;;5.27;1.40;;;11.30;99.90;;;;;;5016587;28;20493;-80
2023/11/05 01:36:46;;;;;;;4.63;1.40;;;11.30;99.90;;;;;;5016589;28;20507;-79
2023/11/05 01:39:12;;;;;;;4.57;1.53;;;11.30;99.90;;;;;;5016185;28;20243;-79
2023/11/05 01:41:38;;;;;;;5.00;1.40;;;11.40;99.90;;;;;;5015490;28;20635;-77
2023/11/05 01:44:04;;;;;;;5.17;1.80;;;11.40;99.90;;;;;;5014578;28;20202;-81
2023/11/05 01:46:29;;;;;;;5.70;1.50;;;11.30;99.90;;;;;;5014785;28;20705;-80
2023/11/05 01:48:57;;;;;;;4.03;1.60;;;11.30;99.90;;;;;;5016168;28;20182;-79
2023/11/05 01:51:23;;;;;;;2.80;1.40;;;11.30;99.90;;;;;;5016053;28;20253;-78
2023/11/05 01:53:53;;;;;;;4.80;1.60;;;11.40;99.90;;;;;;5015461;28;20719;-79
2023/11/05 01:56:27;;;;;;;5.27;1.47;;;11.30;99.90;;;;;;5014392;28;20170;-78
2023/11/05 01:58:57;;;;;;;4.10;1.27;;;11.30;99.90;;;;;;5015021;28;20179;-79
2023/11/05 02:01:24;;;;;;;4.13;1.40;;;11.30;99.90;;;;;;5015958;28;20171;-79
2023/11/05 02:03:50;;;;;;;3.30;1.23;;;11.40;99.90;;;;;;5015927;28;20234;-79
2023/11/05 02:06:16;;;;;;;7.23;1.97;;;11.30;99.90;;;;;;5014363;28;20174;-80
2023/11/05 02:08:43;;;;;;;8.53;1.60;;;11.40;99.90;;;;;;5029886;28;20644;-80
2023/11/05 02:11:09;;;;;;;6.53;1.70;;;11.40;99.90;;;;;;5013643;28;20587;-79
2023/11/05 02:13:45;;;;;;;7.03;1.67;;;11.40;99.90;;;;;;5015149;28;20178;-79
2023/11/05 02:16:12;;;;;;;6.67;2.30;;;11.40;99.90;;;;;;5030996;28;20170;-79
2023/11/05 02:18:37;;;;;;;5.87;1.67;;;11.40;99.90;;;;;;5015632;28;20539;-77
2023/11/05 02:21:05;;;;;;;5.03;1.50;;;11.40;99.90;;;;;;5018480;28;20636;-79
2023/11/05 02:23:32;;;;;;;5.83;1.63;;;11.30;99.90;;;;;;5019682;28;20222;-77
2023/11/05 02:25:58;;;;;;;5.77;1.83;;;11.40;99.90;;;;;;5016799;28;20538;-76
2023/11/05 02:28:24;;;;;;;5.70;1.73;;;11.40;99.90;;;;;;5015058;28;20168;-79
2023/11/05 02:30:55;;;;;;;6.43;1.70;;;11.40;99.90;;;;;;5015970;28;20176;-77
2023/11/05 02:33:21;;;;;;;6.20;2.20;;;11.40;99.90;;;;;;5015257;28;20214;-81
2023/11/05 02:35:47;;;;;;;6.57;2.77;;;11.40;99.90;;;;;;5014598;28;20167;-78
2023/11/05 02:38:13;;;;;;;6.87;2.17;;;11.50;99.90;;;;;;5015056;28;20675;-82
2023/11/05 02:40:38;;;;;;;5.87;1.73;;;11.40;99.90;;;;;;5014411;28;20537;-79
2023/11/05 02:43:04;;;;;;;6.27;1.87;;;11.40;99.90;;;;;;5014521;28;20643;-79
2023/11/05 02:45:29;;;;;;;6.33;1.77;;;11.40;99.90;;;;;;5014315;28;20224;-78
2023/11/05 02:47:55;;;;;;;9.93;2.50;;;11.40;99.90;;;;;;5015712;28;20508;-79
2023/11/05 02:50:21;;;;;;;5.10;1.83;;;11.40;99.90;;;;;;5015139;28;20227;-79
2023/11/05 02:52:46;;;;;;;9.23;2.47;;;11.40;99.90;;;;;;5013699;28;20251;-78
2023/11/05 02:55:12;;;;;;;10.30;2.23;;;11.40;99.90;;;;;;5015049;28;20605;-79
2023/11/05 02:57:38;;;;;;;9.17;2.20;;;11.40;99.90;;;;;;5014936;28;20170;-78
2023/11/05 03:00:06;;;;;;;9.33;2.53;;;11.40;99.90;;;;;;5013845;28;20208;-79
2023/11/05 03:02:35;;;;;;;8.93;2.20;;;11.40;99.90;;;;;;5014586;28;20650;-78
2023/11/05 03:05:01;;;;;;;8.97;2.60;;;11.50;99.90;;;;;;5012680;28;20256;-79
2023/11/05 03:07:27;;;;;;;7.73;2.00;;;11.40;99.90;;;;;;5012475;28;20177;-80
2023/11/05 03:09:53;;;;;;;8.07;2.00;;;11.50;99.90;;;;;;5014233;28;20541;-76
2023/11/05 03:12:19;;;;;;;9.17;2.57;;;11.60;99.90;;;;;;5012843;28;20653;-78
2023/11/05 03:14:45;;;;;;;5.33;1.90;;;11.50;99.90;;;;;;5013981;28;20199;-78
2023/11/05 03:17:10;;;;;;;8.83;1.67;;;11.50;99.90;;;;;;5013764;28;20656;-78
2023/11/05 03:19:36;;;;;;;7.87;2.00;;;11.60;99.90;;;;;;5014592;28;20227;-79
2023/11/05 03:22:02;;;;;;;7.90;2.23;;;11.50;99.90;;;;;;5017584;28;20183;-80
2023/11/05 03:24:28;;;;;;;8.23;1.93;;;11.50;99.90;;;;;;5017182;28;20675;-79
2023/11/05 03:26:54;;;;;;;9.07;1.93;;;11.50;99.90;;;;;;5018628;28;20171;-79
2023/11/05 03:29:20;;;;;;;5.97;1.83;;;11.60;99.90;;;;;;5018348;28;20177;-80
2023/11/05 03:31:50;;;;;;;6.33;2.13;;;11.70;99.90;;;;;;5018746;28;20176;-80
2023/11/05 03:34:16;;;;;;;7.27;2.07;;;11.70;99.90;;;;;;5017694;28;20170;-79
2023/11/05 03:36:41;;;;;;;8.17;2.00;;;11.60;99.90;;;;;;5032687;28;20642;-78
2023/11/05 03:39:07;;;;;;;8.20;2.10;;;11.60;99.90;;;;;;5017500;28;20179;-79
2023/11/05 03:41:33;;;;;;;10.10;2.37;;;11.60;99.90;;;;;;5017570;28;20688;-78
2023/11/05 03:43:59;;;;;;;4.47;1.50;;;11.60;99.90;;;;;;5017379;28;20206;-79
2023/11/05 03:46:25;;;;;;;6.47;2.20;;;11.60;99.90;;;;;;5017041;28;20194;-78
2023/11/05 03:48:51;;;;;;;6.67;1.90;;;11.60;99.90;;;;;;5015763;28;20179;-79
2023/11/05 03:51:17;;;;;;;7.27;1.97;;;11.60;99.90;;;;;;5017120;28;20197;-79
2023/11/05 03:53:43;;;;;;;9.77;2.43;;;11.60;99.90;;;;;;5018237;28;20190;-79
2023/11/05 03:56:10;;;;;;;6.53;1.60;;;11.50;99.90;;;;;;5017170;28;20166;-78
2023/11/05 03:58:39;;;;;;;8.40;1.73;;;11.60;99.90;;;;;;5018210;28;20173;-79
2023/11/05 04:01:15;;;;;;;5.87;1.87;;;11.60;99.90;;;;;;5017577;28;20182;-78
2023/11/05 04:03:41;;;;;;;9.33;2.37;;;11.60;99.90;;;;;;5019028;28;20638;-78
2023/11/05 04:06:07;;;;;;;9.40;2.17;;;11.60;99.90;;;;;;5018848;28;20189;-78
2023/11/05 04:08:33;;;;;;;7.40;2.10;;;11.50;99.90;;;;;;5021135;28;20170;-78
2023/11/05 04:10:58;;;;;;;7.70;2.30;;;11.40;99.90;;;;;;5017328;28;20537;-79
2023/11/05 04:13:24;;;;;;;11.87;2.70;;;11.50;99.90;;;;;;5015539;28;20637;-79
2023/11/05 04:15:50;;;;;;;9.50;2.80;;;11.40;99.90;;;;;;5016446;28;20658;-79
2023/11/05 04:18:16;;;;;;;8.53;2.23;;;11.40;99.90;;;;;;5016089;28;20174;-78
2023/11/05 04:20:41;;;;;;;6.73;2.10;;;11.50;99.90;;;;;;5016556;28;20174;-79
2023/11/05 04:23:07;;;;;;;9.20;2.70;;;11.50;99.90;;;;;;5016222;28;20190;-78
2023/11/05 04:25:33;;;;;;;7.23;2.23;;;11.40;99.90;;;;;;5014751;28;20217;-78
2023/11/05 04:27:58;;;;;;;8.20;2.17;;;11.40;99.90;;;;;;5016637;28;20172;-79
2023/11/05 04:30:24;;;;;;;7.07;2.20;;;11.40;99.90;;;;;;5015477;28;20593;-78
2023/11/05 04:32:49;;;;;;;7.77;2.53;;;11.40;99.90;;;;;;5030497;28;20180;-79
2023/11/05 04:35:15;;;;;;;10.20;2.67;;;11.40;99.90;;;;;;5015991;28;20242;-79
2023/11/05 04:37:41;;;;;;;9.90;2.50;;;11.50;99.90;;;;;;5014732;28;20522;-79
2023/11/05 04:40:07;;;;;;;9.53;2.90;;;11.30;99.90;;;;;;5016063;28;20206;-77
2023/11/05 04:42:33;;;;;;;8.43;2.60;;;11.30;99.90;;;;;;5015945;28;20176;-77
2023/11/05 04:44:58;;;;;;;8.30;3.07;;;11.40;99.90;;;;;;5015811;28;20203;-78
2023/11/05 04:47:24;;;;;;;11.13;2.70;;;11.40;99.90;;;;;;5030855;28;20173;-78
2023/11/05 04:49:50;;;;;;;10.63;2.67;;;11.50;99.90;;;;;;5015356;28;20184;-79
2023/11/05 04:52:16;;;;;;;8.70;2.37;;;11.40;99.90;;;;;;5015273;28;20194;-78
2023/11/05 04:54:42;;;;;;;9.53;2.70;;;11.40;99.90;;;;;;5015946;28;20190;-80
2023/11/05 04:57:08;;;;;;;8.23;2.30;;;11.50;99.90;;;;;;5015901;28;20232;-78
2023/11/05 04:59:34;;;;;;;9.40;2.87;;;11.40;99.90;;;;;;5014321;28;20646;-81
2023/11/05 05:02:01;;;;;;;9.03;2.57;;;11.40;99.90;;;;;;5016190;28;20539;-79
2023/11/05 05:04:27;;;;;;;8.53;2.90;;;11.40;99.90;;;;;;5017139;28;20222;-78
2023/11/05 05:06:53;;;;;;;12.90;3.00;;;11.50;99.90;;;;;;5016594;28;20630;-78
2023/11/05 05:09:19;;;;;;;12.43;2.87;;;11.50;99.90;;;;;;5015154;28;20653;-79
2023/11/05 05:11:45;;;;;;;11.37;2.87;;;11.50;99.90;;;;;;5030570;28;20177;-78
2023/11/05 05:14:11;;;;;;;9.73;2.70;;;11.50;99.90;;;;;;5015281;28;20174;-79
2023/11/05 05:16:36;;;;;;;9.20;2.53;;;11.50;99.90;;;;;;5013548;28;20177;-81
2023/11/05 05:19:02;;;;;;;10.43;3.80;;;11.50;99.90;;;;;;5014649;28;20176;-78
2023/11/05 05:21:28;;;;;;;8.20;3.17;;;11.50;99.90;;;;;;5013511;28;20182;-79
2023/11/05 05:23:53;;;;;;;10.63;2.93;;;11.50;99.90;;;;;;5014653;28;20544;-79
2023/11/05 05:26:20;;;;;;;11.13;3.47;;;11.50;99.90;;;;;;5013676;28;20640;-78
2023/11/05 05:28:47;;;;;;;12.13;3.67;;;11.50;99.90;;;;;;5013600;28;20180;-79
2023/11/05 05:31:15;;;;;;;9.17;3.03;;;11.50;99.90;;;;;;5013876;28;20233;-79
2023/11/05 05:33:42;;;;;;;10.13;2.90;;;11.50;99.90;;;;;;5029879;28;20179;-79
2023/11/05 05:36:08;;;;;;;11.83;3.37;;;11.50;99.90;;;;;;5014660;28;20232;-79
2023/11/05 05:38:33;;;;;;;10.90;3.27;;;11.40;99.90;;;;;;5015234;28;20259;-79
2023/11/05 05:41:02;;;;;;;12.33;3.17;;;11.40;99.90;;;;;;5013236;28;20641;-79
2023/11/05 05:43:28;;;;;;;13.03;3.60;;;11.40;99.90;;;;;;5014642;28;20654;-81
2023/11/05 05:45:53;;;;;;;10.63;2.90;;;11.40;99.90;;;;;;5014644;28;20211;-79
2023/11/05 05:48:19;;;;;;;12.07;2.90;;;11.40;99.90;;;;;;5014584;28;20719;-79
2023/11/05 05:50:44;;;;;;;9.43;3.30;;;11.50;99.90;;;;;;5013767;28;20659;-79
2023/11/05 05:53:11;;;;;;;9.90;2.73;;;11.50;99.90;;;;;;5014094;28;20282;-78
2023/11/05 05:55:39;;;;;;;11.10;2.80;;;11.40;99.90;;;;;;5015607;28;20163;-78
2023/11/05 05:58:05;;;;;;;11.60;2.60;;;11.50;99.90;;;;;;5015083;28;20180;-79
2023/11/05 06:00:31;;;;;;;8.83;2.40;;;11.40;99.90;;;;;;5015064;28;20629;-79
2023/11/05 06:02:56;;;;;;;9.33;2.97;;;11.50;99.90;;;;;;5030905;28;20263;-78
2023/11/05 06:05:23;;;;;;;8.83;2.77;;;11.60;99.90;;;;;;5014804;28;20294;-78
2023/11/05 06:07:48;;;;;;;11.10;3.17;;;11.80;99.90;;;;;;5014904;28;20160;-78
2023/11/05 06:10:15;;;;;;;11.87;3.10;;;11.90;99.90;;;;;;5016040;28;20184;-79
2023/11/05 06:12:40;;;;;;;11.70;3.07;;;11.90;99.90;;;;;;5013329;28;20320;-80
2023/11/05 06:15:09;;;;;;;9.30;2.40;;;11.80;99.90;;;;;;5016418;28;20208;-78
2023/11/05 06:17:35;;;;;;;10.33;2.57;;;11.80;99.90;;;;;;5015835;28;20160;-78
2023/11/05 06:20:01;;;;;;;9.10;2.60;;;11.70;99.90;;;;;;5015201;28;20191;-78
2023/11/05 06:22:26;;;;;;;7.40;2.03;;;11.70;99.90;;;;;;5014653;28;20269;-79
2023/11/05 06:24:52;;;;;;;8.57;2.00;;;11.80;99.90;;;;;;5021869;28;20202;-79
2023/11/05 06:27:18;;;;;;;9.07;2.13;;;11.80;99.90;;;;;;5026402;28;20171;-79
2023/11/05 06:29:43;;;;;;;8.30;2.07;;;11.80;99.90;;;;;;5024208;28;20206;-77
2023/11/05 06:32:09;;;;;;;8.97;2.10;;;11.70;99.90;;;;;;5014119;28;20167;-78
2023/11/05 06:34:35;;;;;;;7.10;2.20;;;11.60;99.90;;;;;;5014045;28;20192;-79
2023/11/05 06:37:02;;;;;;;8.10;2.37;;;11.70;99.90;;;;;;5014160;28;20176;-80
2023/11/05 06:39:28;;;;;;;6.77;2.20;;;11.60;99.90;;;;;;5016218;28;20175;-79
2023/11/05 06:41:54;;;;;;;5.77;1.77;;;11.60;99.90;;;;;;5014843;28;20169;-80
2023/11/05 06:44:20;;;;;;;5.53;1.93;;;11.60;99.90;;;;;;5014725;28;20213;-80
2023/11/05 06:46:46;;;;;;;8.07;1.97;;;11.60;99.90;;;;;;5013853;28;20716;-78
2023/11/05 06:49:12;;;;;;;7.27;2.23;;;11.70;99.90;;;;;;5014206;28;20599;-79
2023/11/05 06:51:37;;;;;;;6.07;1.93;;;11.70;99.90;;;;;;5013959;28;20614;-80
2023/11/05 06:54:03;;;;;;;8.07;2.13;;;11.60;99.90;;;;;;5013702;28;20180;-79
2023/11/05 06:56:29;;;;;;;4.77;1.70;;;11.60;99.90;;;;;;5013674;28;20266;-79
2023/11/05 06:58:55;;;;;;;7.57;2.40;;;11.70;99.90;;;;;;5014284;28;20675;-78
2023/11/05 07:01:20;;;;;;;6.10;2.07;;;11.70;99.90;;;;;;5013829;28;20647;-80
2023/11/05 07:03:46;;;;;;;8.70;2.47;;;11.60;99.90;;;;;;5013453;28;20223;-78
2023/11/05 07:06:13;;;;;;;9.70;2.40;;;11.70;99.90;;;;;;5012552;28;20668;-79
2023/11/05 07:08:39;;;;;;;7.13;1.80;;;11.70;99.90;;;;;;5012118;28;20172;-79
2023/11/05 07:11:06;;;;;;;5.93;2.30;;;11.70;99.90;;;;;;5013738;28;20187;-78
2023/11/05 07:13:32;;;;;;;4.53;1.77;;;11.60;99.90;;;;;;5016532;28;20182;-77
2023/11/05 07:15:58;;;;;;;6.30;2.17;;;11.60;99.90;;;;;;5019450;28;20643;-80
2023/11/05 07:18:24;;;;;;;5.33;1.83;;;11.60;99.90;;;;;;5026849;28;20164;-79
2023/11/05 07:20:49;;;;;;;4.73;1.77;;;11.60;99.90;;;;;;5027926;28;20281;-78
2023/11/05 07:23:15;;;;;;;5.73;1.90;;;11.60;99.90;;;;;;5029688;28;20180;-78
2023/11/05 07:25:41;;;;;;;5.50;1.80;;;11.50;99.90;;;;;;5024486;28;20257;-80
2023/11/05 07:28:08;;;;;;;11.00;2.50;;;11.50;99.90;;;;;;5029956;28;20710;-78
2023/11/05 07:30:33;;;;;;;4.50;1.63;;;11.60;99.90;;;;;;5018885;28;20236;-79
2023/11/05 07:32:59;;;;;;;6.97;1.80;;;11.60;99.90;;;;;;5017126;28;20269;-79
2023/11/05 07:35:26;;;;;;;5.03;1.90;;;11.60;99.90;;;;;;5018416;28;20173;-79
2023/11/05 07:37:54;;;;;;;5.03;1.80;;;11.50;99.90;;;;;;5018029;28;20156;-79
2023/11/05 07:40:20;;;;;;;5.77;2.17;;;11.50;99.90;;;;;;5015956;28;20191;-78
2023/11/05 07:42:47;;;;;;;6.40;1.70;;;11.60;99.90;;;;;;5015103;28;20184;-78
2023/11/05 07:45:13;;;;;;;5.93;1.90;;;11.60;99.90;;;;;;5014556;28;20203;-80
2023/11/05 07:47:39;;;;;;;4.70;1.60;;;11.50;99.90;;;;;;5017151;28;20162;-80
2023/11/05 07:50:13;;;;;;;8.43;2.10;;;11.50;99.90;;;;;;5013879;28;20511;-79
2023/11/05 07:52:43;;;;;;;4.67;1.67;;;11.60;99.90;;;;;;5013901;28;20187;-80
2023/11/05 07:55:10;;;;;;;5.83;1.70;;;11.60;99.90;;;;;;5013717;28;20174;-80
2023/11/05 07:57:36;;;;;;;6.93;1.90;;;11.70;99.90;;;;;;5012220;28;20175;-80
2023/11/05 08:00:03;;;;;;;6.97;1.80;;;11.70;99.90;;;;;;5013207;28;20171;-78
2023/11/05 08:02:29;;;;;;;6.30;1.90;;;11.70;99.90;;;;;;5014946;28;20342;-81
2023/11/05 08:04:56;;;;;;;5.03;1.77;;;11.70;99.90;;;;;;5013696;28;20691;-78
2023/11/05 08:07:23;;;;;;;6.93;2.07;;;11.70;99.90;;;;;;5015458;28;20225;-79
2023/11/05 08:09:51;;;;;;;5.73;1.90;;;11.70;99.90;;;;;;5033067;28;20650;-82
2023/11/05 08:12:18;;;;;;;6.70;1.70;;;11.80;99.90;;;;;;5029992;28;20250;-80
2023/11/05 08:14:43;;;;;;;4.07;1.53;;;11.80;99.90;;;;;;5019742;28;20262;-77
2023/11/05 08:17:09;;;;;;;7.20;2.33;;;11.80;99.90;;;;;;5026746;28;20198;-81
2023/11/05 08:19:35;;;;;;;5.87;2.13;;;11.70;99.90;;;;;;5026981;28;20209;-77
2023/11/05 08:22:00;;;;;;;6.37;2.30;;;11.70;99.90;;;;;;5027185;28;20173;-80
2023/11/05 08:24:26;;;;;;;5.03;2.13;;;11.80;99.90;;;;;;5023637;28;20214;-79
2023/11/05 08:26:52;;;;;;;5.87;2.43;;;11.90;99.90;;;;;;5021025;28;20146;-80
2023/11/05 08:29:19;;;;;;;4.60;1.93;;;11.90;99.90;;;;;;5023192;28;20624;-77
2023/11/05 08:31:44;;;;;;;12.87;2.80;;;11.90;99.90;;;;;;5021239;28;20162;-77
2023/11/05 08:34:10;;;;;;;4.47;1.93;;;11.80;99.90;;;;;;5016706;28;20519;-80
2023/11/05 08:36:36;;;;;;;6.67;2.33;;;11.80;99.90;;;;;;5015746;28;20182;-79
2023/11/05 08:39:05;;;;;;;4.83;2.23;;;11.80;99.90;;;;;;5016743;28;20626;-78
2023/11/05 08:41:31;;;;;;;7.03;2.17;;;11.60;99.90;;;;;;5015883;28;20182;-80
2023/11/05 08:43:57;;;;;;;5.27;2.40;;;11.80;99.90;;;;;;5016166;28;20246;-80
2023/11/05 08:46:23;;;;;;;7.60;2.30;;;11.70;99.90;;;;;;5016251;28;20250;-78
2023/11/05 08:48:49;;;;;;;6.53;2.60;;;11.60;99.90;;;;;;5016031;28;20170;-79
2023/11/05 08:51:33;;;;;;;4.87;2.37;;;11.60;99.90;;;;;;5017103;28;20532;-82
2023/11/05 08:53:59;;;;;;;5.13;2.30;;;11.60;99.90;;;;;;5017304;28;20173;-81
2023/11/05 08:56:26;;;;;;;6.07;2.57;;;11.60;99.90;;;;;;5016547;28;20176;-81
2023/11/05 08:58:52;;;;;;;9.33;3.00;;;11.60;99.90;;;;;;5017142;28;20162;-80
2023/11/05 09:01:18;;;;;;;6.60;2.70;;;11.70;99.90;;;;;;5017309;28;20620;-84
2023/11/05 09:03:47;;;;;;;6.10;2.70;;;11.60;99.90;;;;;;5017206;28;20170;-81
2023/11/05 09:06:13;;;;;;;9.13;2.53;;;11.60;99.90;;;;;;5017110;28;20179;-83
2023/11/05 09:08:39;;;;;;;8.53;3.13;;;11.70;99.90;;;;;;5015579;28;20280;-83
2023/11/05 09:11:06;;;;;;;8.60;3.20;;;11.70;99.90;;;;;;5016762;28;20624;-79
2023/11/05 09:13:31;;;;;;;10.70;3.30;;;11.80;99.90;;;;;;5015454;28;20182;-81
2023/11/05 09:15:57;;;;;;;5.97;2.43;;;11.70;99.90;;;;;;5016258;28;20168;-81
2023/11/05 09:18:24;;;;;;;6.27;2.60;;;11.70;99.90;;;;;;5015502;28;20174;-81
2023/11/05 09:20:50;;;;;;;5.53;2.47;;;11.80;99.90;;;;;;5017017;28;20207;-77
2023/11/05 09:23:16;;;;;;;5.80;2.50;;;11.90;99.90;;;;;;5032080;28;20181;-80
2023/11/05 09:25:42;;;;;;;6.47;2.87;;;11.80;99.90;;;;;;5015190;28;20209;-81
2023/11/05 09:28:08;;;;;;;8.30;2.90;;;11.90;99.90;;;;;;5015779;28;20560;-82
2023/11/05 09:30:34;;;;;;;7.10;2.80;;;12.00;99.90;;;;;;5016008;28;20170;-79
2023/11/05 09:33:00;;;;;;;5.23;2.43;;;12.00;99.90;;;;;;5014334;28;20170;-79
2023/11/05 09:35:26;;;;;;;6.33;2.97;;;12.00;99.90;;;;;;5015356;28;20189;-79
2023/11/05 09:37:52;;;;;;;6.97;2.90;;;12.00;99.90;;;;;;5018620;28;20167;-83
2023/11/05 09:40:19;;;;;;;7.43;2.90;;;12.00;99.90;;;;;;5025923;28;20231;-80
2023/11/05 09:43:05;;;;;;;6.93;3.20;;;12.00;99.90;;;;;;5023828;28;20168;-84
2023/11/05 09:45:35;;;;;;;6.77;3.33;;;12.00;99.90;;;;;;5020075;28;20219;-83
2023/11/05 09:48:11;;;;;;;7.63;2.93;;;12.10;99.90;;;;;;5020111;28;20183;-86
2023/11/05 09:50:38;;;;;;;11.37;3.27;;;12.10;99.90;;;;;;5018710;28;20551;-85
2023/11/05 09:53:10;;;;;;;7.60;3.43;;;12.10;99.90;;;;;;5019022;28;20276;-84
2023/11/05 09:55:39;;;;;;;7.17;2.70;;;12.10;99.90;;;;;;5018955;28;20226;-87
2023/11/05 09:58:05;;;;;;;8.00;3.53;;;12.20;99.90;;;;;;5018399;28;20204;-87
2023/11/05 10:00:32;;;;;;;10.00;3.80;;;12.30;99.90;;;;;;5020365;28;20186;-89
2023/11/05 10:03:07;;;;;;;8.00;3.17;;;12.20;99.90;;;;;;5018766;28;20193;-91
2023/11/05 10:05:37;;;;;;;7.13;3.60;;;12.20;99.90;;;;;;5019752;28;20277;-88
2023/11/05 10:08:06;;;;;;;10.60;4.50;;;12.20;99.90;;;;;;5020170;28;20179;-87
2023/11/05 10:10:38;;;;;;;11.67;4.60;;;12.30;99.90;;;;;;5019448;28;20233;-87
2023/11/05 10:13:04;;;;;;;9.07;5.17;;;12.40;99.90;;;;;;5020701;28;20174;-83
2023/11/05 10:15:33;;;;;;;8.77;4.57;;;12.40;99.90;;;;;;5028488;28;20174;-80
2023/11/05 10:17:59;;;;;;;8.63;5.30;;;12.40;99.90;;;;;;5032813;28;20166;-79
2023/11/05 10:20:25;;;;;;;11.60;4.67;;;12.50;99.90;;;;;;5028865;28;20187;-80
2023/11/05 10:23:02;;;;;;;11.60;5.70;;;12.40;99.90;;;;;;5026666;28;20196;-79
2023/11/05 10:25:28;;;;;;;11.63;5.30;;;12.40;99.90;;;;;;5012971;28;20210;-79
2023/11/05 10:27:54;;;;;;;14.23;6.17;;;12.40;99.90;;;;;;5015839;28;20535;-83
2023/11/05 10:30:21;;;;;;;9.63;5.57;;;12.40;99.90;;;;;;5014254;28;20195;-79
2023/11/05 10:32:48;;;;;;;10.60;5.37;;;12.50;99.90;;;;;;5014449;28;20274;-81
2023/11/05 10:35:21;;;;;;;11.53;5.70;;;12.50;99.90;;;;;;5014347;28;20654;-78
2023/11/05 10:37:48;;;;;;;10.40;5.70;;;12.60;99.90;;;;;;5011964;28;20567;-79
2023/11/05 10:40:15;;;;;;;12.17;6.43;;;12.60;99.90;;;;;;5013136;28;20198;-81
2023/11/05 10:42:49;;;;;;;10.97;6.40;;;12.60;99.90;;;;;;5013600;28;20175;-81
2023/11/05 10:45:19;;;;;;;11.57;6.33;;;12.50;99.90;;;;;;5013829;28;20767;-86
2023/11/05 10:47:46;;;;;;;10.03;6.27;;;12.40;99.90;;;;;;5013973;28;20659;-80
2023/11/05 10:50:23;;;;;;;8.53;5.70;;;12.40;99.90;;;;;;5016338;28;20196;-88
2023/11/05 10:52:56;;;;;;;9.90;6.03;;;12.30;99.90;;;;;;5016901;28;20182;-83
2023/11/05 10:55:36;;;;;;;7.50;5.50;;;12.40;99.90;;;;;;5018379;28;20271;-81
2023/11/05 10:58:04;;;;;;;8.53;5.97;;;12.20;99.90;;;;;;5013596;28;20170;-79
2023/11/05 11:00:32;;;;;;;13.67;5.07;;;12.20;99.90;;;;;;5013378;28;20269;-78
2023/11/05 11:03:12;;;;;;;9.37;5.20;;;12.20;99.90;;;;;;5012670;28;20218;-79
2023/11/05 11:05:43;;;;;;;9.57;5.27;;;12.30;99.90;;;;;;5014437;28;20226;-80
2023/11/05 11:08:13;;;;;;;8.93;4.30;;;12.30;99.90;;;;;;5014890;28;20176;-83
2023/11/05 11:10:40;;;;;;;5.60;3.47;;;12.30;99.90;;;;;;5014386;28;20237;-83
2023/11/05 11:13:14;;;;;;;6.03;3.87;;;12.30;99.90;;;;;;5015586;28;20198;-80
2023/11/05 11:15:44;;;;;;;8.30;3.83;;;12.30;99.90;;;;;;5013865;28;20170;-80
2023/11/05 11:18:20;;;;;;;8.03;3.90;;;12.30;99.90;;;;;;5015703;28;20535;-80
2023/11/05 11:20:47;;;;;;;9.07;3.23;;;12.30;99.90;;;;;;5016340;28;20185;-89
2023/11/05 11:23:17;;;;;;;7.33;3.73;;;12.30;99.90;;;;;;5016134;28;20269;-81
2023/11/05 11:26:20;;;;;;;7.23;3.90;;;12.40;99.90;;;;;;5015664;28;20676;-87
2023/11/05 11:28:53;;;;;;;7.03;3.70;;;12.30;99.90;;;;;;5011944;28;20211;-89
2023/11/05 11:31:19;;;;;;;6.50;3.10;;;12.30;99.90;;;;;;5012767;28;20201;-81
2023/11/05 11:33:46;;;;;;;5.40;2.93;;;12.40;99.90;;;;;;5014740;28;20184;-86
2023/11/05 11:36:11;;;;;;;5.60;3.30;;;12.40;99.90;;;;;;5014700;28;20591;-82
2023/11/05 11:38:37;;;;;;;4.23;2.33;;;12.30;99.90;;;;;;5017377;28;20176;-90
2023/11/05 11:41:03;;;;;;;5.67;2.80;;;12.40;99.90;;;;;;5018673;28;20193;-82
2023/11/05 11:43:30;;;;;;;4.47;3.03;;;12.40;99.90;;;;;;5017867;28;20170;-79
2023/11/05 11:45:56;;;;;;;4.97;3.07;;;12.40;99.90;;;;;;5018359;28;20300;-78
2023/11/05 11:48:25;;;;;;;4.30;2.97;;;12.40;99.90;;;;;;5020222;28;20184;-88
2023/11/05 11:51:02;;;;;;;6.30;2.57;;;12.50;99.90;;;;;;5021826;28;20281;-86
2023/11/05 11:53:40;;;;;;;4.23;2.93;;;12.40;99.90;;;;;;5021859;28;20213;-87
2023/11/05 11:56:07;;;;;;;5.13;3.20;;;12.30;99.90;;;;;;5025844;28;20175;-88
2023/11/05 11:58:38;;;;;;;7.93;3.83;;;12.30;99.90;;;;;;5021723;28;20178;-88
2023/11/05 12:01:13;;;;;;;5.10;3.23;;;12.40;99.90;;;;;;5022352;28;20162;-84
2023/11/05 12:03:40;;;;;;;4.40;2.90;;;12.40;99.90;;;;;;5022467;28;20170;-87
2023/11/05 12:06:06;;;;;;;4.97;2.87;;;12.30;99.90;;;;;;5022312;28;20202;-87
2023/11/05 12:08:44;;;;;;;3.10;1.97;;;12.30;99.90;;;;;;5022763;28;20221;-90
2023/11/05 12:11:18;;;;;;;4.77;2.63;;;12.30;99.90;;;;;;5023899;28;20195;-88
2023/11/05 12:13:46;;;;;;;5.00;2.73;;;12.30;99.90;;;;;;5021041;28;20177;-81
2023/11/05 12:16:14;;;;;;;6.93;3.37;;;12.30;99.90;;;;;;5018773;28;20337;-79
2023/11/05 12:18:41;;;;;;;4.60;2.77;;;12.30;99.90;;;;;;5020629;28;20174;-80
2023/11/05 12:21:08;;;;;;;6.30;3.30;;;12.40;99.90;;;;;;5021464;28;20171;-81
2023/11/05 12:23:38;;;;;;;7.67;3.70;;;12.40;99.90;;;;;;5017408;28;20212;-81
2023/11/05 12:26:07;;;;;;;4.93;3.57;;;12.40;99.90;;;;;;5015994;28;20706;-81
2023/11/05 12:28:32;;;;;;;5.63;4.00;;;12.20;99.90;;;;;;5015630;28;20589;-80
2023/11/05 12:31:03;;;;;;;6.27;4.03;;;12.20;99.90;;;;;;5016695;28;20257;-81
2023/11/05 12:33:34;;;;;;;7.50;4.23;;;12.00;99.90;;;;;;5015630;28;20174;-79
2023/11/05 12:36:00;;;;;;;8.50;5.00;;;11.80;99.90;;;;;;5017394;28;20193;-82
2023/11/05 12:38:27;;;;;;;7.70;4.30;;;11.80;99.90;;;;;;5016962;28;20174;-81
2023/11/05 12:40:53;;;;;;;7.43;4.60;;;11.70;99.90;;;;;;5017176;28;20161;-81
2023/11/05 12:43:21;;;;;;;6.70;4.10;;;11.60;99.90;;;;;;5017051;28;20265;-83
2023/11/05 12:45:47;;;;;;;10.07;4.83;;;11.70;99.90;;;;;;5033236;28;20224;-80